Westervelt, Illinois
Current Conditions -  °F | °C
As of 9:55 AM on Sunday 21 Dec 2014 (Local Time) from K1H2 Reporting Station
Overcast Overcast  
Wind Chill: 28°   Ceiling: 2500
Heat Index: 34°   Visibility: 7mi
Dew Point: 27°   Wind: 7mph
Humidity: 74%   Direction: 120°ESE
Pressure: 30.27"   Gusts: NA
Location:  39.3979°N, 88.811°W
Report Text: K1H2 211555Z AUTO 12006KT 7SM OVC025 01/M03 A3027 RMK AO2 T00111030
Loading
Personal Weather Stations






























Interactive Weather Map New forecast layout! Learn more

10-Day Weather Forecast

Advertisements
Track Severe Weather on mobile